dimanche 13 juillet 2014

ALETER SPOTTING 13/07/14

73H CN-RGN RAM (sticker 50th 737)
   AT786/AT653  06h15/07h50

320 EC-JZQ Vueling (sticker Thanks)
   VY8012/VY8013  08h45/09h25

32A EC-LVP Vueling (couleur Linking Europe)
     dpt VY6250  06h45
   VY6251/VY8178  11h35/12h10
  VY8177/VY1981  16H35/17h40
 arv VY1982 22h55

320 F-GHQE Air Corsica (blanc avec titre et sticker)
   XK4503/XK4502  11h50/12h55
  XK4505/XK4504   20h15/21h20
 
DF9 G-ENXA  arv 12h10

IL9 CU-T1251 Cubana
   CU444/CU445  13h59/ 

763 EI-DBU Transaero
  UN555/UN556  13h15/14h50

319 6V-ONE Republique du Sénégal
    dpt 13h00

E95 EC-LIN Air Europa (sticker)
   UX1025/UX1026  19h20/20h10

Manque les prévisions de certains AB/AH/AZ/BA/BE/IB/KM/TP/TU

*** Horaires en Heure Locale ***
Prévisions matinales soumises à modifications de dernières minutes.

Voir le log du mois pour la version 'définitive' de la journée: 
 http://www.airkalo.com/ORLYAVIATION/Logdumois.html

le TAF de la journée:


METAR: LFPO 130300Z 24003KT 9999 BKN039 17/15 Q1012 NOSIG=
TAF LONG: LFPO 122300Z 1300/1406 22005KT CAVOK BECMG 1301/1304 BKN025 BECMG
1304/1306 8000 -RA BKN012 TEMPO 1306/1312 4000 RA BKN008 TEMPO
1312/1318 -SHRA SCT025CB BKN030 BECMG 1318/1321 CAVOK=